sensor_id;sensor_type;location;lat;lon;timestamp;temperature;humidity
60473;DHT22;46318;52.716;6.444;2022-09-13T00:00:51;19.10;99.80
60473;DHT22;46318;52.716;6.444;2022-09-13T00:03:19;19.10;99.90
60473;DHT22;46318;52.716;6.444;2022-09-13T00:05:45;19.00;99.90
60473;DHT22;46318;52.716;6.444;2022-09-13T00:08:11;19.00;99.90
60473;DHT22;46318;52.716;6.444;2022-09-13T00:10:39;18.90;99.90
60473;DHT22;46318;52.716;6.444;2022-09-13T00:13:07;18.90;99.90
60473;DHT22;46318;52.716;6.444;2022-09-13T00:15:35;18.90;99.90
60473;DHT22;46318;52.716;6.444;2022-09-13T00:18:01;18.80;99.90
60473;DHT22;46318;52.716;6.444;2022-09-13T00:20:27;18.80;99.90
60473;DHT22;46318;52.716;6.444;2022-09-13T00:22:53;18.80;99.90
60473;DHT22;46318;52.716;6.444;2022-09-13T00:25:19;18.80;99.90
60473;DHT22;46318;52.716;6.444;2022-09-13T00:27:45;18.80;99.90
60473;DHT22;46318;52.716;6.444;2022-09-13T00:30:12;18.70;99.90
60473;DHT22;46318;52.716;6.444;2022-09-13T00:32:38;18.80;99.90
60473;DHT22;46318;52.716;6.444;2022-09-13T00:35:05;18.70;99.90
60473;DHT22;46318;52.716;6.444;2022-09-13T00:37:32;18.70;99.90
60473;DHT22;46318;52.716;6.444;2022-09-13T00:39:59;18.70;99.90
60473;DHT22;46318;52.716;6.444;2022-09-13T00:42:27;18.70;99.90
60473;DHT22;46318;52.716;6.444;2022-09-13T00:45:02;18.70;99.90
60473;DHT22;46318;52.716;6.444;2022-09-13T00:47:39;18.60;99.90
60473;DHT22;46318;52.716;6.444;2022-09-13T00:50:24;18.60;99.90
60473;DHT22;46318;52.716;6.444;2022-09-13T00:53:02;18.60;99.90
60473;DHT22;46318;52.716;6.444;2022-09-13T00:55:43;18.60;99.90
60473;DHT22;46318;52.716;6.444;2022-09-13T00:58:21;18.60;99.90
60473;DHT22;46318;52.716;6.444;2022-09-13T01:01:14;18.60;99.90
60473;DHT22;46318;52.716;6.444;2022-09-13T01:03:42;18.50;99.90
60473;DHT22;46318;52.716;6.444;2022-09-13T01:06:13;18.50;99.90
60473;DHT22;46318;52.716;6.444;2022-09-13T01:08:44;18.50;99.90
60473;DHT22;46318;52.716;6.444;2022-09-13T01:11:19;18.50;99.90
60473;DHT22;46318;52.716;6.444;2022-09-13T01:13:50;18.50;99.90
60473;DHT22;46318;52.716;6.444;2022-09-13T01:16:16;18.40;99.90
60473;DHT22;46318;52.716;6.444;2022-09-13T01:18:42;18.40;99.90
60473;DHT22;46318;52.716;6.444;2022-09-13T01:30:27;18.40;99.90
60473;DHT22;46318;52.716;6.444;2022-09-13T01:36:33;18.30;99.90
60473;DHT22;46318;52.716;6.444;2022-09-13T01:39:15;18.30;99.90
60473;DHT22;46318;52.716;6.444;2022-09-13T01:45:07;18.30;99.90
60473;DHT22;46318;52.716;6.444;2022-09-13T01:47:57;18.30;99.90
60473;DHT22;46318;52.716;6.444;2022-09-13T01:50:46;18.30;99.90
60473;DHT22;46318;52.716;6.444;2022-09-13T01:56:25;18.30;99.90
60473;DHT22;46318;52.716;6.444;2022-09-13T01:59:00;18.30;99.90
60473;DHT22;46318;52.716;6.444;2022-09-13T02:01:43;18.30;99.90
60473;DHT22;46318;52.716;6.444;2022-09-13T02:04:21;18.30;99.90
60473;DHT22;46318;52.716;6.444;2022-09-13T02:07:11;18.20;99.90
60473;DHT22;46318;52.716;6.444;2022-09-13T02:09:47;18.20;99.90
60473;DHT22;46318;52.716;6.444;2022-09-13T02:12:26;18.20;99.90
60473;DHT22;46318;52.716;6.444;2022-09-13T02:17:38;18.20;99.90
60473;DHT22;46318;52.716;6.444;2022-09-13T02:20:27;18.20;99.90
60473;DHT22;46318;52.716;6.444;2022-09-13T02:23:06;18.20;99.90
60473;DHT22;46318;52.716;6.444;2022-09-13T02:25:37;18.20;99.90
60473;DHT22;46318;52.716;6.444;2022-09-13T02:28:08;18.20;99.90
60473;DHT22;46318;52.716;6.444;2022-09-13T02:30:39;18.20;99.90
60473;DHT22;46318;52.716;6.444;2022-09-13T02:33:14;18.10;99.90
60473;DHT22;46318;52.716;6.444;2022-09-13T02:36:03;18.20;99.90
60473;DHT22;46318;52.716;6.444;2022-09-13T02:38:58;18.20;99.90
60473;DHT22;46318;52.716;6.444;2022-09-13T02:41:42;18.10;99.90
60473;DHT22;46318;52.716;6.444;2022-09-13T02:50:18;18.10;99.90
60473;DHT22;46318;52.716;6.444;2022-09-13T02:55:29;18.10;99.90
60473;DHT22;46318;52.716;6.444;2022-09-13T02:58:31;18.10;99.90
60473;DHT22;46318;52.716;6.444;2022-09-13T03:01:02;18.00;99.90
60473;DHT22;46318;52.716;6.444;2022-09-13T03:03:28;18.10;99.90
60473;DHT22;46318;52.716;6.444;2022-09-13T03:05:53;18.10;99.90
60473;DHT22;46318;52.716;6.444;2022-09-13T03:08:20;18.10;99.90
60473;DHT22;46318;52.716;6.444;2022-09-13T03:27:55;18.10;99.90
60473;DHT22;46318;52.716;6.444;2022-09-13T03:30:29;18.10;99.90
60473;DHT22;46318;52.716;6.444;2022-09-13T03:33:09;18.00;99.90
60473;DHT22;46318;52.716;6.444;2022-09-13T03:35:41;18.10;99.90
60473;DHT22;46318;52.716;6.444;2022-09-13T03:38:14;18.00;99.90
60473;DHT22;46318;52.716;6.444;2022-09-13T03:41:17;18.00;99.90
60473;DHT22;46318;52.716;6.444;2022-09-13T03:43:55;18.00;99.90
60473;DHT22;46318;52.716;6.444;2022-09-13T03:46:34;18.00;99.90
60473;DHT22;46318;52.716;6.444;2022-09-13T03:49:14;18.00;99.90
60473;DHT22;46318;52.716;6.444;2022-09-13T03:51:43;18.00;99.90
60473;DHT22;46318;52.716;6.444;2022-09-13T03:54:20;18.00;99.90
60473;DHT22;46318;52.716;6.444;2022-09-13T03:57:26;18.00;99.90
60473;DHT22;46318;52.716;6.444;2022-09-13T03:59:54;18.00;99.90
60473;DHT22;46318;52.716;6.444;2022-09-13T04:02:23;18.00;99.90
60473;DHT22;46318;52.716;6.444;2022-09-13T04:04:50;18.00;99.90
60473;DHT22;46318;52.716;6.444;2022-09-13T04:07:21;18.00;99.90
60473;DHT22;46318;52.716;6.444;2022-09-13T04:09:48;18.00;99.90
60473;DHT22;46318;52.716;6.444;2022-09-13T04:12:15;18.00;99.90
60473;DHT22;46318;52.716;6.444;2022-09-13T04:14:42;18.00;99.90
60473;DHT22;46318;52.716;6.444;2022-09-13T04:17:08;18.00;99.90
60473;DHT22;46318;52.716;6.444;2022-09-13T04:19:34;18.00;99.90
60473;DHT22;46318;52.716;6.444;2022-09-13T04:22:01;18.00;99.90
60473;DHT22;46318;52.716;6.444;2022-09-13T04:24:28;18.00;99.90
60473;DHT22;46318;52.716;6.444;2022-09-13T04:26:55;18.00;99.90
60473;DHT22;46318;52.716;6.444;2022-09-13T04:29:22;18.00;99.90
60473;DHT22;46318;52.716;6.444;2022-09-13T04:31:51;18.00;99.90
60473;DHT22;46318;52.716;6.444;2022-09-13T04:34:18;18.00;99.90
60473;DHT22;46318;52.716;6.444;2022-09-13T04:36:47;18.00;99.90
60473;DHT22;46318;52.716;6.444;2022-09-13T04:39:13;18.00;99.90
60473;DHT22;46318;52.716;6.444;2022-09-13T04:41:40;18.00;99.90
60473;DHT22;46318;52.716;6.444;2022-09-13T04:44:09;18.00;99.90
60473;DHT22;46318;52.716;6.444;2022-09-13T04:46:35;17.90;99.90
60473;DHT22;46318;52.716;6.444;2022-09-13T04:49:00;18.00;99.90
60473;DHT22;46318;52.716;6.444;2022-09-13T04:51:26;18.00;99.90
60473;DHT22;46318;52.716;6.444;2022-09-13T04:53:53;18.00;99.90
60473;DHT22;46318;52.716;6.444;2022-09-13T04:56:20;17.90;99.90
60473;DHT22;46318;52.716;6.444;2022-09-13T04:58:51;17.90;99.90
60473;DHT22;46318;52.716;6.444;2022-09-13T05:01:17;17.90;99.90
60473;DHT22;46318;52.716;6.444;2022-09-13T05:03:43;18.00;99.90
60473;DHT22;46318;52.716;6.444;2022-09-13T05:06:12;17.90;99.90
60473;DHT22;46318;52.716;6.444;2022-09-13T05:08:42;17.90;99.90
60473;DHT22;46318;52.716;6.444;2022-09-13T05:11:08;18.00;99.90
60473;DHT22;46318;52.716;6.444;2022-09-13T05:13:34;17.90;99.90
60473;DHT22;46318;52.716;6.444;2022-09-13T05:16:03;17.90;99.90
60473;DHT22;46318;52.716;6.444;2022-09-13T05:18:33;17.90;99.90
60473;DHT22;46318;52.716;6.444;2022-09-13T05:21:02;17.90;99.90
60473;DHT22;46318;52.716;6.444;2022-09-13T05:23:30;18.00;99.90
60473;DHT22;46318;52.716;6.444;2022-09-13T05:25:58;17.90;99.90
60473;DHT22;46318;52.716;6.444;2022-09-13T05:28:30;18.00;99.90
60473;DHT22;46318;52.716;6.444;2022-09-13T05:31:08;18.00;99.90
60473;DHT22;46318;52.716;6.444;2022-09-13T05:33:37;17.90;99.90
60473;DHT22;46318;52.716;6.444;2022-09-13T05:36:04;17.90;99.90
60473;DHT22;46318;52.716;6.444;2022-09-13T05:38:31;17.90;99.90
60473;DHT22;46318;52.716;6.444;2022-09-13T05:40:59;17.90;99.90
60473;DHT22;46318;52.716;6.444;2022-09-13T05:43:28;17.90;99.90
60473;DHT22;46318;52.716;6.444;2022-09-13T05:46:10;18.00;99.90
60473;DHT22;46318;52.716;6.444;2022-09-13T05:48:37;18.00;99.90
60473;DHT22;46318;52.716;6.444;2022-09-13T05:53:35;18.00;99.90
60473;DHT22;46318;52.716;6.444;2022-09-13T05:56:11;18.00;99.90
60473;DHT22;46318;52.716;6.444;2022-09-13T05:58:40;18.00;99.90
60473;DHT22;46318;52.716;6.444;2022-09-13T06:01:07;18.00;99.90
60473;DHT22;46318;52.716;6.444;2022-09-13T06:03:34;18.00;99.90
60473;DHT22;46318;52.716;6.444;2022-09-13T06:06:01;18.00;99.90
60473;DHT22;46318;52.716;6.444;2022-09-13T06:08:28;18.00;99.90
60473;DHT22;46318;52.716;6.444;2022-09-13T06:11:00;18.00;99.90
60473;DHT22;46318;52.716;6.444;2022-09-13T06:13:30;18.00;99.90
60473;DHT22;46318;52.716;6.444;2022-09-13T06:15:58;18.00;99.90
60473;DHT22;46318;52.716;6.444;2022-09-13T06:18:25;18.00;99.90
60473;DHT22;46318;52.716;6.444;2022-09-13T06:20:58;18.00;99.90
60473;DHT22;46318;52.716;6.444;2022-09-13T06:23:25;18.00;99.90
60473;DHT22;46318;52.716;6.444;2022-09-13T06:25:59;18.00;99.90
60473;DHT22;46318;52.716;6.444;2022-09-13T06:28:29;18.00;99.90
60473;DHT22;46318;52.716;6.444;2022-09-13T06:31:14;18.00;99.90
60473;DHT22;46318;52.716;6.444;2022-09-13T06:33:42;18.00;99.90
60473;DHT22;46318;52.716;6.444;2022-09-13T06:36:18;18.00;99.90
60473;DHT22;46318;52.716;6.444;2022-09-13T06:38:45;18.00;99.90
60473;DHT22;46318;52.716;6.444;2022-09-13T06:41:13;18.00;99.90
60473;DHT22;46318;52.716;6.444;2022-09-13T06:43:40;18.00;99.90
60473;DHT22;46318;52.716;6.444;2022-09-13T06:46:17;18.00;99.90
60473;DHT22;46318;52.716;6.444;2022-09-13T06:48:44;18.00;99.90
60473;DHT22;46318;52.716;6.444;2022-09-13T06:51:13;18.00;99.90
60473;DHT22;46318;52.716;6.444;2022-09-13T06:53:42;18.00;99.90
60473;DHT22;46318;52.716;6.444;2022-09-13T06:56:20;18.00;99.90
60473;DHT22;46318;52.716;6.444;2022-09-13T06:58:57;18.00;99.90
60473;DHT22;46318;52.716;6.444;2022-09-13T07:01:29;18.00;99.90
60473;DHT22;46318;52.716;6.444;2022-09-13T07:04:07;18.00;99.90
60473;DHT22;46318;52.716;6.444;2022-09-13T07:06:43;18.00;99.90
60473;DHT22;46318;52.716;6.444;2022-09-13T07:09:16;17.90;99.90
60473;DHT22;46318;52.716;6.444;2022-09-13T07:11:47;17.90;99.90
60473;DHT22;46318;52.716;6.444;2022-09-13T07:14:19;17.90;99.90
60473;DHT22;46318;52.716;6.444;2022-09-13T07:16:47;17.90;99.90
60473;DHT22;46318;52.716;6.444;2022-09-13T07:19:16;17.90;99.90
60473;DHT22;46318;52.716;6.444;2022-09-13T07:21:44;18.00;99.90
60473;DHT22;46318;52.716;6.444;2022-09-13T07:24:10;18.00;99.90
60473;DHT22;46318;52.716;6.444;2022-09-13T07:26:37;18.00;99.90
60473;DHT22;46318;52.716;6.444;2022-09-13T07:29:07;18.00;99.90
60473;DHT22;46318;52.716;6.444;2022-09-13T07:31:37;18.00;99.90
60473;DHT22;46318;52.716;6.444;2022-09-13T07:34:12;18.00;99.90
60473;DHT22;46318;52.716;6.444;2022-09-13T07:36:38;18.00;99.90
60473;DHT22;46318;52.716;6.444;2022-09-13T07:39:05;18.00;99.90
60473;DHT22;46318;52.716;6.444;2022-09-13T07:41:32;18.00;99.90
60473;DHT22;46318;52.716;6.444;2022-09-13T07:43:59;18.10;99.90
60473;DHT22;46318;52.716;6.444;2022-09-13T07:46:28;18.10;99.90
60473;DHT22;46318;52.716;6.444;2022-09-13T07:48:59;18.10;99.90
60473;DHT22;46318;52.716;6.444;2022-09-13T07:51:28;18.10;99.90
60473;DHT22;46318;52.716;6.444;2022-09-13T07:53:58;18.10;99.90
60473;DHT22;46318;52.716;6.444;2022-09-13T07:56:30;18.10;99.90
60473;DHT22;46318;52.716;6.444;2022-09-13T07:58:59;18.20;99.90
60473;DHT22;46318;52.716;6.444;2022-09-13T08:04:04;18.20;99.90
60473;DHT22;46318;52.716;6.444;2022-09-13T08:06:35;18.30;99.90
60473;DHT22;46318;52.716;6.444;2022-09-13T08:09:03;18.30;99.90
60473;DHT22;46318;52.716;6.444;2022-09-13T08:11:33;18.30;99.90
60473;DHT22;46318;52.716;6.444;2022-09-13T08:14:01;18.30;99.90
60473;DHT22;46318;52.716;6.444;2022-09-13T08:16:29;18.30;99.90
60473;DHT22;46318;52.716;6.444;2022-09-13T08:18:58;18.40;99.90
60473;DHT22;46318;52.716;6.444;2022-09-13T08:21:31;18.40;99.90
60473;DHT22;46318;52.716;6.444;2022-09-13T08:23:58;18.40;99.90
60473;DHT22;46318;52.716;6.444;2022-09-13T08:26:29;18.50;99.90
60473;DHT22;46318;52.716;6.444;2022-09-13T08:28:58;18.50;99.90
60473;DHT22;46318;52.716;6.444;2022-09-13T08:31:25;18.60;99.90
60473;DHT22;46318;52.716;6.444;2022-09-13T08:33:51;18.60;99.90
60473;DHT22;46318;52.716;6.444;2022-09-13T08:36:17;18.60;99.90
60473;DHT22;46318;52.716;6.444;2022-09-13T08:38:48;18.60;99.90
60473;DHT22;46318;52.716;6.444;2022-09-13T08:49:45;18.80;99.90
60473;DHT22;46318;52.716;6.444;2022-09-13T08:55:33;18.80;99.90
60473;DHT22;46318;52.716;6.444;2022-09-13T08:58:40;18.90;99.90
60473;DHT22;46318;52.716;6.444;2022-09-13T09:04:29;19.10;99.90
60473;DHT22;46318;52.716;6.444;2022-09-13T09:07:09;19.20;99.90
60473;DHT22;46318;52.716;6.444;2022-09-13T09:09:52;19.30;99.90
60473;DHT22;46318;52.716;6.444;2022-09-13T09:15:05;19.50;99.90
60473;DHT22;46318;52.716;6.444;2022-09-13T09:22:51;19.90;99.90
60473;DHT22;46318;52.716;6.444;2022-09-13T09:25:21;20.10;99.90
60473;DHT22;46318;52.716;6.444;2022-09-13T09:27:50;20.10;99.90
60473;DHT22;46318;52.716;6.444;2022-09-13T09:30:16;20.10;99.90
60473;DHT22;46318;52.716;6.444;2022-09-13T09:36:40;20.10;99.90
60473;DHT22;46318;52.716;6.444;2022-09-13T09:38:42;20.20;99.90
60473;DHT22;46318;52.716;6.444;2022-09-13T09:46:32;20.40;99.90
60473;DHT22;46318;52.716;6.444;2022-09-13T09:58:39;20.60;98.80
60473;DHT22;46318;52.716;6.444;2022-09-13T10:01:17;20.70;99.20
60473;DHT22;46318;52.716;6.444;2022-09-13T10:04:17;20.80;98.20
60473;DHT22;46318;52.716;6.444;2022-09-13T10:06:44;21.00;97.70
60473;DHT22;46318;52.716;6.444;2022-09-13T10:09:19;21.10;97.70
60473;DHT22;46318;52.716;6.444;2022-09-13T10:11:53;21.20;96.30
60473;DHT22;46318;52.716;6.444;2022-09-13T10:19:54;21.30;94.80
60473;DHT22;46318;52.716;6.444;2022-09-13T10:22:26;21.30;95.20
60473;DHT22;46318;52.716;6.444;2022-09-13T10:24:54;21.20;95.20
60473;DHT22;46318;52.716;6.444;2022-09-13T10:27:25;21.20;94.90
60473;DHT22;46318;52.716;6.444;2022-09-13T10:30:04;21.30;94.80
60473;DHT22;46318;52.716;6.444;2022-09-13T10:32:32;21.40;94.80
60473;DHT22;46318;52.716;6.444;2022-09-13T10:35:07;21.50;94.50
60473;DHT22;46318;52.716;6.444;2022-09-13T10:37:41;21.60;92.80
60473;DHT22;46318;52.716;6.444;2022-09-13T10:40:20;21.70;91.60
60473;DHT22;46318;52.716;6.444;2022-09-13T10:42:52;21.70;91.50
60473;DHT22;46318;52.716;6.444;2022-09-13T10:45:23;21.90;90.90
60473;DHT22;46318;52.716;6.444;2022-09-13T10:47:52;22.00;90.80
60473;DHT22;46318;52.716;6.444;2022-09-13T10:52:52;22.10;91.20
60473;DHT22;46318;52.716;6.444;2022-09-13T10:57:46;22.00;91.50
60473;DHT22;46318;52.716;6.444;2022-09-13T11:06:33;22.10;90.80
60473;DHT22;46318;52.716;6.444;2022-09-13T11:09:15;22.10;90.60
60473;DHT22;46318;52.716;6.444;2022-09-13T11:11:56;22.30;90.80
60473;DHT22;46318;52.716;6.444;2022-09-13T11:20:44;22.40;87.40
60473;DHT22;46318;52.716;6.444;2022-09-13T11:26:38;22.30;87.90
60473;DHT22;46318;52.716;6.444;2022-09-13T11:29:44;22.30;86.00
60473;DHT22;46318;52.716;6.444;2022-09-13T11:33:02;22.30;88.10
60473;DHT22;46318;52.716;6.444;2022-09-13T11:39:08;22.50;87.00
60473;DHT22;46318;52.716;6.444;2022-09-13T11:45:41;22.50;86.90
60473;DHT22;46318;52.716;6.444;2022-09-13T11:48:31;22.50;85.50
60473;DHT22;46318;52.716;6.444;2022-09-13T11:51:12;22.50;84.70
60473;DHT22;46318;52.716;6.444;2022-09-13T11:56:34;22.70;82.10
60473;DHT22;46318;52.716;6.444;2022-09-13T11:59:43;22.80;81.60
60473;DHT22;46318;52.716;6.444;2022-09-13T12:02:26;22.80;82.40
60473;DHT22;46318;52.716;6.444;2022-09-13T12:05:08;22.80;83.00
60473;DHT22;46318;52.716;6.444;2022-09-13T12:10:57;22.90;80.30
60473;DHT22;46318;52.716;6.444;2022-09-13T12:13:33;23.00;76.70
60473;DHT22;46318;52.716;6.444;2022-09-13T12:16:07;23.00;79.70
60473;DHT22;46318;52.716;6.444;2022-09-13T12:18:46;23.10;80.20
60473;DHT22;46318;52.716;6.444;2022-09-13T12:21:21;23.20;79.50
60473;DHT22;46318;52.716;6.444;2022-09-13T12:24:01;23.40;78.20
60473;DHT22;46318;52.716;6.444;2022-09-13T12:29:18;23.70;76.80
60473;DHT22;46318;52.716;6.444;2022-09-13T12:31:53;23.80;74.70
60473;DHT22;46318;52.716;6.444;2022-09-13T12:34:24;23.90;76.00
60473;DHT22;46318;52.716;6.444;2022-09-13T12:37:37;24.00;74.40
60473;DHT22;46318;52.716;6.444;2022-09-13T12:50:09;24.10;72.70
60473;DHT22;46318;52.716;6.444;2022-09-13T12:56:09;24.20;73.30
60473;DHT22;46318;52.716;6.444;2022-09-13T12:59:19;24.20;69.20
60473;DHT22;46318;52.716;6.444;2022-09-13T13:02:02;24.30;71.90
60473;DHT22;46318;52.716;6.444;2022-09-13T13:04:50;24.30;70.80
60473;DHT22;46318;52.716;6.444;2022-09-13T13:07:21;24.20;69.20
60473;DHT22;46318;52.716;6.444;2022-09-13T13:09:50;24.20;71.40
60473;DHT22;46318;52.716;6.444;2022-09-13T13:12:37;24.20;70.20
60473;DHT22;46318;52.716;6.444;2022-09-13T13:17:54;24.30;68.90
60473;DHT22;46318;52.716;6.444;2022-09-13T13:20:46;24.40;69.10
60473;DHT22;46318;52.716;6.444;2022-09-13T13:23:36;24.40;61.40
60473;DHT22;46318;52.716;6.444;2022-09-13T13:33:57;24.50;60.90
60473;DHT22;46318;52.716;6.444;2022-09-13T13:39:31;24.60;60.80
60473;DHT22;46318;52.716;6.444;2022-09-13T13:41:59;24.70;59.00
60473;DHT22;46318;52.716;6.444;2022-09-13T13:46:54;24.90;59.70
60473;DHT22;46318;52.716;6.444;2022-09-13T13:57:34;25.10;58.20
60473;DHT22;46318;52.716;6.444;2022-09-13T14:00:20;25.10;59.40
60473;DHT22;46318;52.716;6.444;2022-09-13T14:05:33;25.00;60.80
60473;DHT22;46318;52.716;6.444;2022-09-13T14:08:34;24.90;59.90
60473;DHT22;46318;52.716;6.444;2022-09-13T14:12:01;24.90;59.00
60473;DHT22;46318;52.716;6.444;2022-09-13T14:20:11;24.70;57.50
60473;DHT22;46318;52.716;6.444;2022-09-13T14:22:41;24.60;59.20
60473;DHT22;46318;52.716;6.444;2022-09-13T14:25:15;24.50;60.40
60473;DHT22;46318;52.716;6.444;2022-09-13T14:27:48;24.40;57.40
60473;DHT22;46318;52.716;6.444;2022-09-13T14:30:24;24.30;58.00
60473;DHT22;46318;52.716;6.444;2022-09-13T14:32:57;24.30;58.60
60473;DHT22;46318;52.716;6.444;2022-09-13T14:35:37;24.20;59.50
60473;DHT22;46318;52.716;6.444;2022-09-13T14:38:17;24.10;60.10
60473;DHT22;46318;52.716;6.444;2022-09-13T14:40:49;24.10;59.10
60473;DHT22;46318;52.716;6.444;2022-09-13T14:43:21;24.00;60.00
60473;DHT22;46318;52.716;6.444;2022-09-13T14:45:52;23.90;60.40
60473;DHT22;46318;52.716;6.444;2022-09-13T14:48:28;23.80;60.90
60473;DHT22;46318;52.716;6.444;2022-09-13T14:51:14;23.70;60.30
60473;DHT22;46318;52.716;6.444;2022-09-13T14:53:48;23.60;60.50
60473;DHT22;46318;52.716;6.444;2022-09-13T14:56:29;23.60;61.90
60473;DHT22;46318;52.716;6.444;2022-09-13T14:59:00;23.50;62.50
60473;DHT22;46318;52.716;6.444;2022-09-13T15:01:34;23.40;61.90
60473;DHT22;46318;52.716;6.444;2022-09-13T15:04:02;23.40;62.80
60473;DHT22;46318;52.716;6.444;2022-09-13T15:06:34;23.30;62.40
60473;DHT22;46318;52.716;6.444;2022-09-13T15:11:38;23.30;64.30
60473;DHT22;46318;52.716;6.444;2022-09-13T15:14:25;23.20;65.50
60473;DHT22;46318;52.716;6.444;2022-09-13T15:19:49;23.20;68.10
60473;DHT22;46318;52.716;6.444;2022-09-13T15:22:29;23.20;68.60
60473;DHT22;46318;52.716;6.444;2022-09-13T15:24:58;23.10;67.60
60473;DHT22;46318;52.716;6.444;2022-09-13T15:27:44;23.10;69.10
60473;DHT22;46318;52.716;6.444;2022-09-13T15:30:29;23.10;70.10
60473;DHT22;46318;52.716;6.444;2022-09-13T15:33:05;23.00;69.70
60473;DHT22;46318;52.716;6.444;2022-09-13T15:35:43;22.90;70.70
60473;DHT22;46318;52.716;6.444;2022-09-13T15:38:29;22.90;71.40
60473;DHT22;46318;52.716;6.444;2022-09-13T15:41:12;22.80;70.80
60473;DHT22;46318;52.716;6.444;2022-09-13T15:43:39;22.80;71.40
60473;DHT22;46318;52.716;6.444;2022-09-13T15:46:05;22.70;71.30
60473;DHT22;46318;52.716;6.444;2022-09-13T15:48:33;22.70;71.50
60473;DHT22;46318;52.716;6.444;2022-09-13T15:51:08;22.70;72.50
60473;DHT22;46318;52.716;6.444;2022-09-13T15:53:40;22.70;72.50
60473;DHT22;46318;52.716;6.444;2022-09-13T15:56:08;22.60;72.00
60473;DHT22;46318;52.716;6.444;2022-09-13T15:58:38;22.50;72.60
60473;DHT22;46318;52.716;6.444;2022-09-13T16:01:04;22.50;73.30
60473;DHT22;46318;52.716;6.444;2022-09-13T16:03:30;22.40;73.80
60473;DHT22;46318;52.716;6.444;2022-09-13T16:05:57;22.40;73.90
60473;DHT22;46318;52.716;6.444;2022-09-13T16:08:23;22.40;73.10
60473;DHT22;46318;52.716;6.444;2022-09-13T16:10:50;22.30;73.30
60473;DHT22;46318;52.716;6.444;2022-09-13T16:13:16;22.20;73.20
60473;DHT22;46318;52.716;6.444;2022-09-13T16:15:41;22.20;73.50
60473;DHT22;46318;52.716;6.444;2022-09-13T16:18:08;22.10;73.70
60473;DHT22;46318;52.716;6.444;2022-09-13T16:20:34;22.10;74.20
60473;DHT22;46318;52.716;6.444;2022-09-13T16:23:00;22.00;74.90
60473;DHT22;46318;52.716;6.444;2022-09-13T16:25:26;22.00;75.50
60473;DHT22;46318;52.716;6.444;2022-09-13T16:27:52;22.00;75.70
60473;DHT22;46318;52.716;6.444;2022-09-13T16:30:20;22.00;76.00
60473;DHT22;46318;52.716;6.444;2022-09-13T16:32:47;21.90;76.00
60473;DHT22;46318;52.716;6.444;2022-09-13T16:35:13;21.90;76.40
60473;DHT22;46318;52.716;6.444;2022-09-13T16:37:41;21.80;76.60
60473;DHT22;46318;52.716;6.444;2022-09-13T16:40:07;21.80;76.80
60473;DHT22;46318;52.716;6.444;2022-09-13T16:42:34;21.70;76.60
60473;DHT22;46318;52.716;6.444;2022-09-13T16:45:01;21.70;76.90
60473;DHT22;46318;52.716;6.444;2022-09-13T16:47:27;21.60;76.90
60473;DHT22;46318;52.716;6.444;2022-09-13T16:49:53;21.60;77.00
60473;DHT22;46318;52.716;6.444;2022-09-13T16:52:18;21.60;77.10
60473;DHT22;46318;52.716;6.444;2022-09-13T16:54:44;21.50;77.30
60473;DHT22;46318;52.716;6.444;2022-09-13T16:57:13;21.50;77.30
60473;DHT22;46318;52.716;6.444;2022-09-13T16:59:40;21.40;77.50
60473;DHT22;46318;52.716;6.444;2022-09-13T17:02:08;21.40;77.80
60473;DHT22;46318;52.716;6.444;2022-09-13T17:04:35;21.30;77.70
60473;DHT22;46318;52.716;6.444;2022-09-13T17:07:01;21.30;77.80
60473;DHT22;46318;52.716;6.444;2022-09-13T17:09:29;21.20;78.20
60473;DHT22;46318;52.716;6.444;2022-09-13T17:11:55;21.10;78.00
60473;DHT22;46318;52.716;6.444;2022-09-13T17:14:21;21.10;78.40
60473;DHT22;46318;52.716;6.444;2022-09-13T17:16:51;21.10;78.90
60473;DHT22;46318;52.716;6.444;2022-09-13T17:19:21;21.00;78.80
60473;DHT22;46318;52.716;6.444;2022-09-13T17:21:50;20.90;78.90
60473;DHT22;46318;52.716;6.444;2022-09-13T17:24:16;20.90;78.90
60473;DHT22;46318;52.716;6.444;2022-09-13T17:26:43;20.80;79.10
60473;DHT22;46318;52.716;6.444;2022-09-13T17:29:11;20.80;79.30
60473;DHT22;46318;52.716;6.444;2022-09-13T17:31:38;20.70;79.40
60473;DHT22;46318;52.716;6.444;2022-09-13T17:34:04;20.70;79.60
60473;DHT22;46318;52.716;6.444;2022-09-13T17:36:30;20.60;79.90
60473;DHT22;46318;52.716;6.444;2022-09-13T17:38:56;20.60;80.00
60473;DHT22;46318;52.716;6.444;2022-09-13T17:41:23;20.50;80.20
60473;DHT22;46318;52.716;6.444;2022-09-13T17:43:50;20.50;80.60
60473;DHT22;46318;52.716;6.444;2022-09-13T17:46:24;20.40;81.00
60473;DHT22;46318;52.716;6.444;2022-09-13T17:48:53;20.30;81.10
60473;DHT22;46318;52.716;6.444;2022-09-13T17:51:22;20.30;81.60
60473;DHT22;46318;52.716;6.444;2022-09-13T17:53:55;20.20;81.80
60473;DHT22;46318;52.716;6.444;2022-09-13T17:56:33;20.10;81.80
60473;DHT22;46318;52.716;6.444;2022-09-13T18:01:44;20.00;82.30
60473;DHT22;46318;52.716;6.444;2022-09-13T18:04:12;20.00;82.70
60473;DHT22;46318;52.716;6.444;2022-09-13T18:06:39;19.90;83.00
60473;DHT22;46318;52.716;6.444;2022-09-13T18:09:07;19.80;83.20
60473;DHT22;46318;52.716;6.444;2022-09-13T18:11:34;19.80;83.40
60473;DHT22;46318;52.716;6.444;2022-09-13T18:14:03;19.70;83.40
60473;DHT22;46318;52.716;6.444;2022-09-13T18:16:29;19.70;83.70
60473;DHT22;46318;52.716;6.444;2022-09-13T18:18:56;19.60;84.20
60473;DHT22;46318;52.716;6.444;2022-09-13T18:21:24;19.60;84.50
60473;DHT22;46318;52.716;6.444;2022-09-13T18:23:56;19.50;84.80
60473;DHT22;46318;52.716;6.444;2022-09-13T18:26:24;19.40;85.20
60473;DHT22;46318;52.716;6.444;2022-09-13T18:28:55;19.40;85.20
60473;DHT22;46318;52.716;6.444;2022-09-13T18:31:23;19.40;85.60
60473;DHT22;46318;52.716;6.444;2022-09-13T18:33:54;19.30;85.90
60473;DHT22;46318;52.716;6.444;2022-09-13T18:36:22;19.20;86.30
60473;DHT22;46318;52.716;6.444;2022-09-13T18:38:48;19.20;86.60
60473;DHT22;46318;52.716;6.444;2022-09-13T18:41:20;19.10;87.00
60473;DHT22;46318;52.716;6.444;2022-09-13T18:43:51;19.10;87.20
60473;DHT22;46318;52.716;6.444;2022-09-13T18:46:20;19.00;87.70
60473;DHT22;46318;52.716;6.444;2022-09-13T18:48:52;18.90;88.20
60473;DHT22;46318;52.716;6.444;2022-09-13T18:51:22;18.80;88.50
60473;DHT22;46318;52.716;6.444;2022-09-13T18:53:51;18.80;88.90
60473;DHT22;46318;52.716;6.444;2022-09-13T18:56:18;18.70;89.30
60473;DHT22;46318;52.716;6.444;2022-09-13T18:58:45;18.60;89.40
60473;DHT22;46318;52.716;6.444;2022-09-13T19:01:20;18.60;89.80
60473;DHT22;46318;52.716;6.444;2022-09-13T19:03:52;18.60;90.10
60473;DHT22;46318;52.716;6.444;2022-09-13T19:06:22;18.50;90.20
60473;DHT22;46318;52.716;6.444;2022-09-13T19:08:50;18.50;90.20
60473;DHT22;46318;52.716;6.444;2022-09-13T19:11:19;18.40;90.40
60473;DHT22;46318;52.716;6.444;2022-09-13T19:13:46;18.30;90.50